Tiempo atmosférico en la estación meteorológica de Pedraza, Segovia (1107 m.)



Fecha
DESCASC
Temp. máxima en grados centígrados (hora)
DESCASC
Temp. mínima en grados centígrados (hora)
DESCASC
Temp. media en grados centígrados
DESCASC
Racha de viento máxima en m/sg (hora)
DESCASC
Velocidad máxima media en intervalos de 10 minutos(hora)
DESCASC
Precipitaciones diarias en mm
DESCASC
Precipitaciones de 00:00 a 06:00 en mm
DESCASC
Precipitaciones de 06:00 a 12:00 en mm
DESCASC
Precipitaciones de 12:00 a 18:00 en mm
DESCASC
Precipitaciones de 18:00 a 24:00 en mm
DESCASC
31-03-2020 7.6 (18:20) -1.2 (02:30) 3.2 14.17 (13:20) 9.44 (23:59) 4.4 0 0.6 0 3.8
29-03-2020 15 (16:50) 1.6 (00:00) 8.3 8.89 (17:00) 4.44 (17:50) 0 0 0 0 0
28-03-2020 13.6 (15:10) 1.1 (00:00) 7.4 7.78 (15:40) 3.89 (15:40) 0 0 0 0 0
27-03-2020 9.2 (16:20) -3.3 (-00:0) 2.9 10.28 (12:30) 5.83 (17:00) 0 0 0 0 0
26-03-2020 8.6 (15:30) -2.6 (-00:0) 3 11.94 (13:30) 6.94 (13:10) 0 0 0 0 0
25-03-2020 13.6 (16:00) 2.3 (00:00) 8 8.61 (16:40) 5.28 (16:30) 0 0 0 0 0
24-03-2020 12.7 (14:10) 4.5 (00:00) 8.6 11.67 (11:10) 7.5 (11:10) 0 0 0 0 0
23-03-2020 11.2 (14:50) 5.6 (00:00) 8.4 10 (20:20) 6.39 (20:20) 0.2 0 0 0.2 0
22-03-2020 10.6 (17:30) 3.8 (06:30) 7.2 10.83 (23:59) 5.83 (23:59) 0.8 0 0.6 0.2 0
21-03-2020 10.1 (11:20) 5.4 (00:00) 7.8 13.61 (02:40) 8.06 (04:20) 0.4 0 0 0 0.4
20-03-2020 12.4 (16:20) 6.7 (00:00) 9.5 13.89 (00:40) 8.33 (13:40) 0 0 0 0 0
19-03-2020 15.8 (15:40) 7.6 (00:00) 11.7 14.72 (21:30) 8.89 (23:00) 0 0 0 0 0
18-03-2020 16.8 (15:40) 4.8 (00:00) 10.8 6.39 (13:20) 4.44 (14:00) 0 0 0 0 0
17-03-2020 11.8 (16:50) 3 (00:00) 7.4 15.28 (17:50) 8.61 (17:20) 2.4 2.2 0.2 0 0
16-03-2020 6.5 (00:00) 0.2 (00:00) 3.4 13.61 (12:40) 8.33 (21:40) 8.4 0.2 2.8 1.8 3.6
15-03-2020 17.6 (15:00) 6.3 (00:00) 12 19.44 (17:50) 8.61 (17:50) 7.2 0 0 0 7.2
14-03-2020 16.8 (17:30) 0.6 (00:00) 8.7 5.56 (17:10) 2.78 (12:50) 0 0 0 0 0
13-03-2020 15.3 (14:40) 6.3 (07:50) 10.8 6.67 (18:50) 3.61 (19:00) 0 0 0 0 0
12-03-2020 23 (16:20) 11.7 (00:00) 17.3 10 (13:10) 5.83 (13:00) 0 0 0 0 0
11-03-2020 23 (16:20) 8.3 (00:00) 15.7 7.22 (13:00) 4.17 (13:20) 0 0 0 0 0
10-03-2020 19.9 (16:50) 4.1 (00:00) 12 8.06 (17:30) 5 (17:30) 0 0 0 0 0
09-03-2020 11.6 (16:40) 2.7 (00:00) 7.2 11.39 (00:30) 7.22 (00:20) 0 0 0 0 0
08-03-2020 12.3 (13:50) 0.5 (00:00) 6.4 11.11 (23:40) 6.39 (23:59) 0 0 0 0 0
07-03-2020 10.2 (17:40) -1 (-00:0) 4.6 6.39 (12:40) 4.17 (12:50) 0 0 0 0 0
06-03-2020 6.2 (16:40) 0.6 (00:00) 3.4 18.33 (07:00) 10.83 (06:30) 0.6 0.6 0 0 0
05-03-2020 10.1 (03:50) 3.5 (00:00) 6.8 22.78 (11:00) 11.67 (10:30) 3.2 0 1.4 0.2 1.6
04-03-2020 10 (16:10) 7.7 (08:30) 8.8 12.5 (05:40) 7.5 (02:40) 0.8 0.6 0.2 0 0
03-03-2020 11.8 (17:40) 1.5 (00:00) 6.7 17.5 (16:30) 10.83 (17:40) 2.8 0.2 2.2 0.4 0
02-03-2020 9.8 (04:50) 0.9 (00:00) 5.4 30 (06:40) 19.72 (05:50) 9 6 2 1 0

Gráficas

Temp. máximas Temp. mínimas Temp. medias Precipitaciones Rachas de viento máximas Velocidades máximas media en intervalos de 10 minutos

Datos horarios

Fecha y hora oficial Temperatura (ºC) Velocidad del viento (km/h) Dirección del viento Racha (km/h) Dirección de racha Precipitación (mm) Presión (hPa) Tendencia (hPa) Humedad (%)
2020-03-31 23:00:00 5.5 11 Sudeste 35 Sudeste 3.2 -- -- 90
2020-03-31 22:00:00 6.6 17 Sudeste 34 Sudeste 0 -- -- 85
2020-03-31 21:00:00 6.3 12 Sudeste 24 Sudeste 0.4 -- -- 86
2020-03-31 20:00:00 7 15 Sur 33 Sur 0 -- -- 79
2020-03-31 19:00:00 7.5 10 Este 39 Sur 0 -- -- 79
2020-03-31 18:00:00 7 17 Sur 37 Sudeste 0 -- -- 81
2020-03-31 17:00:00 6.1 17 Sudeste 38 Sudeste 0 -- -- 79
2020-03-31 16:00:00 6.2 12 Sur 31 Sudeste 0 -- -- 77
2020-03-31 15:00:00 6.2 10 Sudeste 27 Sudeste 0 -- -- 79
2020-03-31 14:00:00 5 15 Este 51 Sudeste 0 -- -- 81
2020-03-31 13:00:00 3.7 17 Sudeste 33 Sudeste 0 -- -- 82
2020-03-31 12:00:00 3.5 9 Sur 36 Este 0 -- -- 79
2020-03-31 11:00:00 2.9 6 Nordeste 33 Sur 0 -- -- 82
2020-03-31 10:00:00 3.1 9 Nordeste 27 Norte 0 -- -- 78
2020-03-31 09:00:00 2.9 12 Nordeste 29 Nordeste 0.4 -- -- 77
2020-03-31 08:00:00 2.6 16 Este 35 Sudeste 0.2 -- -- 75
2020-03-31 07:00:00 1.6 7 Sudeste 19 Este 0 -- -- 78
2020-03-31 06:00:00 0.6 6 Este 26 Este 0 -- -- 81
2020-03-31 05:00:00 -0.6 11 Nordeste 30 Este 0 -- -- 85
2020-03-31 04:00:00 -0.1 13 Este 25 Este 0 -- -- 82
2020-03-31 03:00:00 -1 12 Nordeste 25 Este 0 -- -- 94
2020-03-31 02:00:00 -0.6 10 Este 21 Este 0 -- -- 89
2020-03-31 01:00:00 -0.5 14 Este 26 Este 0 -- -- 86
2020-03-31 00:00:00 -0.3 0 Calma 5 Nordeste 0 -- -- 85
2020-03-30 23:00:00 0.7 4 Sudeste 9 Sudeste 0 -- -- 80
2020-03-30 22:00:00 1.1 6 Sudeste 25 Nordeste 0 -- -- 76
2020-03-30 21:00:00 1.5 4 Nordeste 15 Este 0 -- -- 67
2020-03-30 20:00:00 1.6 10 Nordeste 22 Norte 0 -- -- 61
2020-03-30 19:00:00 2.4 10 Nordeste 21 Nordeste 0 -- -- 61
2020-03-30 18:00:00 2.7 10 Nordeste 22 Este 0 -- -- 55
2020-03-30 17:00:00 3 14 Nordeste 23 Norte 0 -- -- 52
2020-03-30 16:00:00 2.4 10 Nordeste 20 Nordeste 0 -- -- 68
2020-03-30 15:00:00 1.3 8 Nordeste 18 Nordeste 0 -- -- 69
2020-03-30 14:00:00 0.4 9 Nordeste 17 Nordeste 0 -- -- 71
2020-03-30 13:00:00 0 5 Nordeste 20 Nordeste 0 -- -- 75
2020-03-30 12:00:00 0 10 Nordeste 22 Nordeste 0 -- -- 79
2020-03-30 11:00:00 -0.3 13 Nordeste 26 Norte 0 -- -- 84
2020-03-30 10:00:00 0.1 6 Norte 14 Nordeste 0 -- -- 90
2020-03-30 09:00:00 0.2 4 Norte 16 Nordeste 0 -- -- 91
2020-03-30 08:00:00 1 8 Noroeste 17 Norte 0 -- -- 87
2020-03-30 07:00:00 1.5 5 Noroeste 12 Norte 0 -- -- 87
2020-03-30 06:00:00 2 4 Norte 10 Norte 0 -- -- 87
2020-03-30 05:00:00 1.9 3 Norte 6 Este 0 -- -- 88
2020-03-30 04:00:00 1.4 4 Este 6 Este 0 -- -- 87
2020-03-30 03:00:00 2 4 Este 8 Sudeste 0 -- -- 85
2020-03-30 02:00:00 3.1 4 Nordeste 13 Nordeste 0 -- -- 83
2020-03-30 01:00:00 4 7 Nordeste 15 Este 0 -- -- 78
2020-03-30 00:00:00 4.9 10 Nordeste 17 Nordeste 0 -- -- 73
2020-03-29 23:00:00 5.7 8 Nordeste 15 Norte 0 -- -- 70
2020-03-29 22:00:00 7.4 6 Este 17 Norte 0 -- -- 59
2020-03-29 21:00:00 9.2 6 Norte 17 Norte 0 -- -- 51
2020-03-29 20:00:00 11.2 12 Norte 28 Norte 0 -- -- 42
2020-03-29 19:00:00 12.6 13 Norte 22 Noroeste 0 -- -- 42
2020-03-29 18:00:00 13.5 12 Noroeste 27 Noroeste 0 -- -- 41
2020-03-29 17:00:00 14.6 14 Noroeste 32 Nordeste 0 -- -- 41
2020-03-29 16:00:00 13.8 8 Norte 19 Norte 0 -- -- 42
2020-03-29 15:00:00 13.2 12 Norte 23 Noroeste 0 -- -- 41
2020-03-29 14:00:00 13 8 Noroeste 22 Noroeste 0 -- -- 42
2020-03-29 13:00:00 12.3 11 Noroeste 21 Noroeste 0 -- -- 45
2020-03-29 12:00:00 11.3 10 Noroeste 19 Noroeste 0 -- -- 48
2020-03-29 11:00:00 9.2 5 Noroeste 13 Oeste 0 -- -- 59
2020-03-29 10:00:00 7.3 3 Noroeste 8 Sudeste 0 -- -- 62
2020-03-29 09:00:00 3.2 4 Sudeste 10 Sudeste 0 -- -- 73
2020-03-29 08:00:00 2.1 5 Sudeste 9 Sudeste 0 -- -- 74
2020-03-29 07:00:00 2.1 6 Sudeste 7 Sudeste 0 -- -- 74
2020-03-29 06:00:00 3.3 4 Este 12 Sudeste 0 -- -- 69
2020-03-29 05:00:00 3.5 10 Sudeste 13 Sudeste 0 -- -- 69
2020-03-29 03:00:00 4.2 10 Sudeste 13 Sudeste 0 -- -- 67
2020-03-29 01:00:00 5 7 Sudeste 12 Sudeste 0 -- -- 64
2020-03-29 00:00:00 5.2 4 Sudeste 8 Sudeste 0 -- -- 63
2020-03-28 23:00:00 6.5 4 Sudeste 10 Sur 0 -- -- 60
2020-03-28 22:00:00 7.7 8 Sur 12 Sur 0 -- -- 57
2020-03-28 21:00:00 9.6 6 Sur 15 Sur 0 -- -- 51
2020-03-28 20:00:00 11.5 3 Sudeste 10 Sur 0 -- -- 46
2020-03-28 19:00:00 12.8 7 Sur 10 Sur 0 -- -- 44
2020-03-28 18:00:00 12.6 4 Este 18 Este 0 -- -- 40
2020-03-28 17:00:00 13.4 5 Nordeste 23 Nordeste 0 -- -- 37
2020-03-28 16:00:00 13.1 5 Nordeste 28 Este 0 -- -- 37
2020-03-28 15:00:00 13.2 8 Este 18 Nordeste 0 -- -- 39
2020-03-28 14:00:00 12.6 10 Este 22 Este 0 -- -- 40
2020-03-28 13:00:00 11.5 6 Este 21 Sudeste 0 -- -- 40
2020-03-28 12:00:00 10.7 10 Este 22 Este 0 -- -- 39
2020-03-28 11:00:00 10.1 4 Sur 9 Oeste 0 -- -- 39
2020-03-28 10:00:00 8 5 Sudoeste 12 Sur 0 -- -- 43
2020-03-28 09:00:00 6.9 3 Este 9 Sudeste 0 -- -- 52
2020-03-28 08:00:00 2.7 5 Sudeste 11 Este 0 -- -- 68
2020-03-28 07:00:00 1.9 5 Este 13 Este 0 -- -- 69
2020-03-28 06:00:00 1.6 7 Este 13 Este 0 -- -- 72
2020-03-28 05:00:00 2.1 5 Este 13 Sudeste 0 -- -- 69
2020-03-28 04:00:00 1.6 3 Sudeste 4 Este 0 -- -- 72
2020-03-28 03:00:00 1.6 3 Sur 14 Sudeste 0 -- -- 69
2020-03-28 02:00:00 3 6 Este 13 Sudeste 0 -- -- 63
2020-03-28 01:00:00 2.8 6 Sudeste 16 Sudeste 0 -- -- 64
2020-03-28 00:00:00 3.3 9 Este 18 Este 0 -- -- 63
2020-03-27 23:00:00 3.8 9 Nordeste 17 Este 0 -- -- 62
2020-03-27 22:00:00 3.4 12 Este 19 Sudeste 0 -- -- 64
2020-03-27 21:00:00 3.8 3 Sudeste 6 Sudeste 0 -- -- 60
2020-03-27 20:00:00 5.7 5 Sudeste 10 Sudeste 0 -- -- 53
2020-03-27 19:00:00 8.2 8 Sudeste 21 Sur 0 -- -- 45
2020-03-27 18:00:00 9 15 Sur 29 Sudeste 0 -- -- 44
2020-03-27 17:00:00 9.1 21 Sur 30 Sur 0 -- -- 44
2020-03-27 16:00:00 8.5 14 Sudeste 31 Sur 0 -- -- 48
2020-03-27 15:00:00 8.6 13 Sudeste 32 Sudeste 0 -- -- 48
2020-03-27 14:00:00 8.3 12 Sudeste 32 Sudeste 0 -- -- 46
2020-03-27 13:00:00 7.7 17 Sudeste 37 Sudeste 0 -- -- 44
2020-03-27 12:00:00 6.8 18 Sudeste 31 Sudeste 0 -- -- 46
2020-03-27 11:00:00 6 16 Este 30 Este 0 -- -- 44
2020-03-27 10:00:00 4.1 16 Sudeste 31 Sudeste 0 -- -- 54
2020-03-27 09:00:00 2.7 9 Sudeste 18 Sudeste 0 -- -- 64
2020-03-27 08:00:00 -1.1 8 Este 13 Este 0 -- -- 84
2020-03-27 07:00:00 -2.9 2 Nordeste 6 Este 0 -- -- 85
2020-03-27 06:00:00 -2.6 0 Calma 11 Nordeste 0 -- -- 81
2020-03-27 05:00:00 -1.8 6 Nordeste 10 Nordeste 0 -- -- 80
2020-03-27 04:00:00 -0.9 2 Este 12 Este 0 -- -- 72
2020-03-27 03:00:00 0.7 8 Nordeste 21 Nordeste 0 -- -- 65
2020-03-27 02:00:00 1.7 9 Nordeste 18 Nordeste 0 -- -- 66
2020-03-27 01:00:00 2.4 10 Nordeste 21 Nordeste 0 -- -- 68
2020-03-27 00:00:00 3.2 9 Nordeste 14 Nordeste 0 -- -- 71
2020-03-26 23:00:00 3.8 4 Nordeste 8 Nordeste 0 -- -- 68
2020-03-26 22:00:00 3.4 3 Nordeste 7 Norte 0 -- -- 70
2020-03-26 21:00:00 3.2 4 Este 9 Nordeste 0 -- -- 65
2020-03-26 20:00:00 4.8 6 Nordeste 18 Noroeste 0 -- -- 60
2020-03-26 19:00:00 7.3 14 Norte 26 Norte 0 -- -- 49
2020-03-26 18:00:00 8.1 13 Norte 26 Norte 0 -- -- 50
2020-03-26 17:00:00 7.6 15 Norte 32 Norte 0 -- -- 49
2020-03-26 16:00:00 8.2 14 Norte 32 Noroeste 0 -- -- 46
2020-03-26 15:00:00 8.1 18 Noroeste 36 Norte 0 -- -- 48
2020-03-26 14:00:00 8 17 Noroeste 43 Noroeste 0 -- -- 50
2020-03-26 13:00:00 7.4 19 Noroeste 33 Noroeste 0 -- -- 49
2020-03-26 12:00:00 6.7 19 Noroeste 30 Noroeste 0 -- -- 55
2020-03-26 11:00:00 5.2 9 Noroeste 21 Noroeste 0 -- -- 64
2020-03-26 10:00:00 3.9 9 Noroeste 15 Oeste 0 -- -- 61
2020-03-26 09:00:00 1.6 4 Oeste 6 Sudoeste 0 -- -- 61
2020-03-26 08:00:00 -1.4 0 Calma 3 Sur 0 -- -- 65
2020-03-26 07:00:00 -2.5 2 Sudoeste 3 Sudoeste 0 -- -- 58
2020-03-26 06:00:00 -1.4 0 Calma 6 Sudoeste 0 -- -- 53
2020-03-26 05:00:00 -0.8 0 Calma 9 Oeste 0 -- -- 50
2020-03-26 04:00:00 -0.8 2 Sur 5 Norte 0 -- -- 57
2020-03-26 03:00:00 1.4 3 Noroeste 5 Norte 0 -- -- 49
2020-03-26 02:00:00 1.9 0 Calma 9 Este 0 -- -- 55
2020-03-26 01:00:00 2.5 5 Este 10 Sudeste 0 -- -- 58
2020-03-26 00:00:00 3.2 5 Este 6 Este 0 -- -- 60
2020-03-25 23:00:00 5.1 3 Sudeste 10 Nordeste 0 -- -- 52
2020-03-25 22:00:00 6.2 5 Nordeste 8 Nordeste 0 -- -- 51
2020-03-25 21:00:00 6.8 0 Calma 8 Noroeste 0 -- -- 53
2020-03-25 20:00:00 9.6 6 Noroeste 17 Noroeste 0 -- -- 43
2020-03-25 19:00:00 12.3 10 Noroeste 25 Noroeste 0 -- -- 39
2020-03-25 18:00:00 13.1 18 Noroeste 30 Noroeste 0 -- -- 37
2020-03-25 17:00:00 13.5 16 Noroeste 31 Noroeste 0 -- -- 37
2020-03-25 16:00:00 13.6 18 Noroeste 30 Noroeste 0 -- -- 42
2020-03-25 15:00:00 13 13 Noroeste 28 Noroeste 0 -- -- 45
2020-03-25 14:00:00 12.2 15 Noroeste 28 Noroeste 0 -- -- 50
2020-03-25 13:00:00 10.9 11 Noroeste 24 Norte 0 -- -- 58
2020-03-25 12:00:00 10.3 9 Noroeste 22 Noroeste 0 -- -- 59
2020-03-25 11:00:00 9.4 9 Noroeste 17 Noroeste 0 -- -- 67
2020-03-25 10:00:00 7.9 8 Oeste 15 Oeste 0 -- -- 73
2020-03-25 09:00:00 5.2 2 Oeste 5 Norte 0 -- -- 80
2020-03-25 08:00:00 3.2 0 Calma 7 Sudeste 0 -- -- 87
2020-03-25 07:00:00 2.5 3 Sur 8 Sudoeste 0 -- -- 86
2020-03-25 06:00:00 3.2 5 Sudoeste 10 Sudoeste 0 -- -- 82
2020-03-25 05:00:00 3.8 7 Sudoeste 11 Sudoeste 0 -- -- 81
2020-03-25 04:00:00 4 6 Sur 13 Sur 0 -- -- 78
2020-03-25 03:00:00 3.7 8 Sudeste 10 Sudeste 0 -- -- 76
2020-03-25 02:00:00 4.6 7 Sudeste 14 Sur 0 -- -- 73
2020-03-25 01:00:00 3.4 6 Sudeste 13 Este 0 -- -- 78
2020-03-25 00:00:00 4.8 6 Este 12 Sudeste 0 -- -- 75
2020-03-24 23:00:00 5.4 8 Sudeste 10 Este 0 -- -- 73
2020-03-24 22:00:00 6.3 9 Sudeste 15 Sudeste 0 -- -- 71
2020-03-24 21:00:00 7.1 5 Sudeste 18 Sudeste 0 -- -- 67
2020-03-24 20:00:00 8.3 9 Sudeste 22 Sudeste 0 -- -- 64
2020-03-24 19:00:00 10.3 14 Sudeste 24 Sudeste 0 -- -- 57
2020-03-24 18:00:00 11.8 16 Sudeste 27 Sudeste 0 -- -- 54
2020-03-24 17:00:00 12.2 13 Sudeste 32 Sudeste 0 -- -- 51
2020-03-24 16:00:00 12 18 Este 35 Este 0 -- -- 54
2020-03-24 15:00:00 12 19 Este 41 Sudeste 0 -- -- 54
2020-03-24 14:00:00 12.3 21 Sudeste 33 Sudeste 0 -- -- 53
2020-03-24 13:00:00 11.8 19 Sudeste 35 Este 0 -- -- 56
2020-03-24 12:00:00 10.2 16 Sudeste 42 Sudeste 0 -- -- 65
2020-03-24 11:00:00 10.2 25 Sudeste 38 Sudeste 0 -- -- 63
2020-03-24 10:00:00 7.8 7 Nordeste 17 Norte 0 -- -- 75
2020-03-24 09:00:00 6 12 Nordeste 26 Este 0 -- -- 80
2020-03-24 08:00:00 4.7 5 Nordeste 14 Sudeste 0 -- -- 84
2020-03-24 07:00:00 5.4 8 Nordeste 27 Sudeste 0 -- -- 81
2020-03-24 06:00:00 6.7 16 Este 30 Este 0 -- -- 75
2020-03-24 05:00:00 6.6 14 Este 26 Este 0 -- -- 77
2020-03-24 04:00:00 6.2 14 Este 26 Sudeste 0 -- -- 79
2020-03-24 03:00:00 6.8 10 Este 27 Este 0 -- -- 76
2020-03-24 02:00:00 7 14 Este 29 Este 0 -- -- 78
2020-03-24 01:00:00 6.8 8 Este 28 Sudeste 0 -- -- 80
2020-03-24 00:00:00 7.5 18 Sudeste 29 Sudeste 0 -- -- 77
2020-03-23 23:00:00 7.3 9 Este 23 Nordeste 0 -- -- 79
2020-03-23 22:00:00 7.8 16 Este 30 Sudeste 0 -- -- 77
2020-03-23 21:00:00 7.8 13 Este 36 Sudeste 0 -- -- 75
2020-03-23 20:00:00 7.4 13 Este 23 Sudeste 0 -- -- 74
2020-03-23 19:00:00 9.4 7 Este 33 Este 0 -- -- 66
2020-03-23 18:00:00 9.7 22 Este 33 Este 0 -- -- 66
2020-03-23 17:00:00 9.2 13 Sudeste 31 Sur 0.2 -- -- 77
2020-03-23 16:00:00 11.1 14 Sudeste 28 Sudeste 0 -- -- 63
2020-03-23 15:00:00 10.9 19 Sudeste 30 Sudeste 0 -- -- 67
2020-03-23 14:00:00 10 14 Sudeste 35 Sudeste 0 -- -- 70
2020-03-23 13:00:00 9.2 16 Sudeste 32 Este 0 -- -- 72
2020-03-23 12:00:00 8.8 14 Sudeste 29 Este 0 -- -- 72
2020-03-23 11:00:00 8.2 12 Sudeste 33 Este 0 -- -- 73
2020-03-23 10:00:00 8 17 Este 28 Sudeste 0 -- -- 68
2020-03-23 09:00:00 7.6 14 Este 23 Este 0 -- -- 72
2020-03-23 08:00:00 5.7 7 Este 21 Este 0 -- -- 85
2020-03-23 07:00:00 5.6 2 Este 13 Este 0 -- -- 83
2020-03-23 06:00:00 6.4 6 Sudeste 13 Sudeste 0 -- -- 83
2020-03-23 05:00:00 6.7 4 Sudeste 11 Sudeste 0 -- -- 80
2020-03-23 04:00:00 6.8 7 Este 14 Este 0 -- -- 80
2020-03-23 03:00:00 6.8 5 Sudeste 14 Este 0 -- -- 80
2020-03-23 02:00:00 6.8 8 Nordeste 15 Sudeste 0 -- -- 76
2020-03-23 01:00:00 7.1 9 Sudeste 35 Sudeste 0 -- -- 75
2020-03-23 00:00:00 7.8 21 Sudeste 39 Sudeste 0 -- -- 68
2020-03-22 23:00:00 8.2 10 Este 23 Sudeste 0 -- -- 64
2020-03-22 22:00:00 8 3 Este 15 Nordeste 0 -- -- 69
2020-03-22 21:00:00 8.7 10 Este 21 Este 0 -- -- 67
2020-03-22 20:00:00 9.3 12 Este 21 Este 0 -- -- 62
2020-03-22 19:00:00 9.8 5 Sudeste 16 Sudeste 0 -- -- 65
2020-03-22 18:00:00 10.3 12 Sudeste 22 Este 0 -- -- 65
2020-03-22 17:00:00 10.5 2 Este 13 Sudeste 0 -- -- 67
2020-03-22 16:00:00 10.3 6 Sudeste 27 Sudeste 0 -- -- 66
2020-03-22 15:00:00 9.6 3 Sudeste 10 Sudeste 0 -- -- 73
2020-03-22 14:00:00 8.9 3 Sudeste 12 Oeste 0.2 -- -- 82
2020-03-22 13:00:00 8.6 5 Noroeste 12 Noroeste 0 -- -- 81
2020-03-22 12:00:00 7.6 6 Norte 10 Norte 0 -- -- 82
2020-03-22 11:00:00 6.4 2 Este 4 Norte 0.4 -- -- 84
2020-03-22 10:00:00 5.8 3 Norte 5 Norte 0 -- -- 92
2020-03-22 09:00:00 5.1 3 Este 10 Nordeste 0.2 -- -- 94
2020-03-22 08:00:00 4.4 5 Nordeste 10 Nordeste 0 -- -- 93
2020-03-22 07:00:00 3.9 0 Calma 8 Este 0 -- -- 89
2020-03-22 06:00:00 4.3 3 Este 10 Este 0 -- -- 86
2020-03-22 05:00:00 4.9 3 Este 8 Este 0 -- -- 85
2020-03-22 04:00:00 4.9 0 Calma 4 Oeste 0 -- -- 85
2020-03-22 03:00:00 5.1 5 Sudeste 14 Sur 0 -- -- 83
2020-03-22 02:00:00 5.2 3 Sudeste 14 Sudeste 0 -- -- 83
2020-03-22 01:00:00 5.1 4 Norte 20 Sur 0 -- -- 86
2020-03-22 00:00:00 5.4 9 Sur 15 Sur 0 -- -- 81
2020-03-21 23:00:00 5.6 6 Este 23 Sur 0 -- -- 83
2020-03-21 22:00:00 5.8 11 Sudeste 27 Sudeste 0.4 -- -- 80
2020-03-21 21:00:00 6.6 14 Sur 25 Sur 0 -- -- 77
2020-03-21 20:00:00 6.6 10 Sudoeste 31 Sur 0 -- -- 80
2020-03-21 19:00:00 7.3 16 Sudeste 24 Sur 0 -- -- 79
2020-03-21 18:00:00 7.8 6 Sudeste 22 Sudeste 0 -- -- 81
2020-03-21 17:00:00 7.8 19 Sudeste 39 Sudeste 0 -- -- 82
2020-03-21 16:00:00 8.3 22 Sudeste 38 Sudeste 0 -- -- 80
2020-03-21 15:00:00 9 23 Sudeste 36 Sudeste 0 -- -- 76
2020-03-21 14:00:00 9.7 19 Sudeste 31 Sudeste 0 -- -- 72
2020-03-21 13:00:00 9.4 17 Sur 41 Sudeste 0 -- -- 72
2020-03-21 12:00:00 9.7 26 Sur 44 Sur 0 -- -- 72
2020-03-21 11:00:00 9.6 21 Sur 30 Sur 0 -- -- 71
2020-03-21 10:00:00 9.1 20 Sur 31 Sur 0 -- -- 69
2020-03-21 09:00:00 7.8 12 Sudeste 24 Sudeste 0 -- -- 74
2020-03-21 08:00:00 5.9 5 Este 21 Sudeste 0 -- -- 79
2020-03-21 07:00:00 6.2 15 Sur 36 Sur 0 -- -- 77
2020-03-21 06:00:00 6.8 19 Sudeste 39 Sudeste 0 -- -- 74
2020-03-21 05:00:00 6.9 18 Sudeste 45 Sur 0 -- -- 73
2020-03-21 04:00:00 7.5 26 Sur 45 Sur 0 -- -- 75
2020-03-21 03:00:00 7.8 26 Sur 49 Sur 0 -- -- 75
2020-03-21 02:00:00 8 10 Sudoeste 31 Sudoeste 0 -- -- 71
2020-03-21 01:00:00 7.5 11 Noroeste 24 Oeste 0 -- -- 75
2020-03-21 00:00:00 7.3 4 Oeste 17 Sur 0 -- -- 72
2020-03-20 23:00:00 7.7 9 Sur 31 Sudeste 0 -- -- 70
2020-03-20 22:00:00 7.4 13 Sudeste 30 Sur 0 -- -- 76
2020-03-20 21:00:00 7.5 22 Sudeste 34 Sudeste 0 -- -- 81
2020-03-20 20:00:00 7.8 14 Sudeste 25 Sudeste 0 -- -- 79
2020-03-20 19:00:00 9.1 15 Sudeste 30 Sudeste 0 -- -- 74
2020-03-20 18:00:00 10.2 18 Sudeste 34 Sudeste 0 -- -- 72
2020-03-20 17:00:00 11.7 19 Sudeste 32 Sudeste 0 -- -- 66
2020-03-20 16:00:00 11.9 17 Sudeste 31 Sudeste 0 -- -- 67
2020-03-20 15:00:00 10.5 17 Sudeste 40 Sudeste 0 -- -- 70
2020-03-20 14:00:00 9.7 24 Sudeste 44 Sudeste 0 -- -- 73
2020-03-20 13:00:00 8.7 19 Sudeste 39 Sudeste 0 -- -- 75
2020-03-20 12:00:00 10.5 15 Sur 27 Sudeste 0 -- -- 68
2020-03-20 11:00:00 9.1 9 Sudeste 29 Sur 0 -- -- 73
2020-03-20 10:00:00 8.3 18 Sudeste 29 Sur 0 -- -- 76
2020-03-20 09:00:00 8.6 17 Sudeste 27 Sur 0 -- -- 74
2020-03-20 08:00:00 7 9 Sudeste 24 Sur 0 -- -- 82
2020-03-20 07:00:00 6.7 13 Sudeste 29 Sudeste 0 -- -- 82
2020-03-20 06:00:00 6.9 12 Sudeste 27 Sur 0 -- -- 83
2020-03-20 05:00:00 7.3 14 Sur 27 Sur 0 -- -- 81
2020-03-20 04:00:00 7.8 16 Sur 39 Sur 0 -- -- 79
2020-03-20 03:00:00 8.1 9 Sur 47 Sudeste 0 -- -- 78
2020-03-20 02:00:00 8.3 11 Sudoeste 45 Sur 0 -- -- 76
2020-03-20 01:00:00 8.5 23 Sur 50 Sudeste 0 -- -- 74
2020-03-20 00:00:00 9.3 20 Sur 50 Sur 0 -- -- 70
2020-03-19 23:00:00 9.5 32 Sur 50 Sudeste 0 -- -- 71
2020-03-19 22:00:00 10.5 18 Sudeste 53 Sudeste 0 -- -- 63
2020-03-19 21:00:00 11 21 Sur 48 Sur 0 -- -- 57
2020-03-19 20:00:00 11.3 16 Sudeste 35 Sur 0 -- -- 56
2020-03-19 19:00:00 12.2 17 Sudeste 33 Sur 0 -- -- 47
2020-03-19 18:00:00 13.9 13 Sur 24 Sudeste 0 -- -- 42
2020-03-19 17:00:00 14.6 15 Sudeste 29 Sur 0 -- -- 39
2020-03-19 16:00:00 15.3 13 Sudeste 24 Sur 0 -- -- 41
2020-03-19 15:00:00 15.1 13 Sudeste 23 Sudeste 0 -- -- 48
2020-03-19 14:00:00 15 10 Este 25 Este 0 -- -- 52
2020-03-19 13:00:00 14.8 8 Este 18 Sur 0 -- -- 53
2020-03-19 12:00:00 14.3 10 Sudeste 20 Este 0 -- -- 58
2020-03-19 11:00:00 11.4 3 Noroeste 8 Oeste 0 -- -- 69
2020-03-19 10:00:00 9.6 2 Sudoeste 8 Sur 0 -- -- 78
2020-03-19 09:00:00 8.2 6 Sudoeste 9 Sudoeste 0 -- -- 80
2020-03-19 08:00:00 8 2 Sur 16 Este 0 -- -- 67
2020-03-19 07:00:00 9.4 9 Este 20 Nordeste 0 -- -- 64
2020-03-19 06:00:00 9.8 13 Nordeste 20 Nordeste 0 -- -- 66
2020-03-19 05:00:00 10 12 Nordeste 18 Nordeste 0 -- -- 71
2020-03-19 04:00:00 9.8 9 Este 14 Nordeste 0 -- -- 73
2020-03-19 03:00:00 10.4 8 Este 18 Sudeste -- -- -- 73
2020-03-19 02:00:00 10.4 11 Sudeste 23 Sudeste 0 -- -- 74
2020-03-19 01:00:00 10.1 10 Sudeste 19 Sur 0 -- -- 74
2020-03-19 00:00:00 9.5 9 Sudeste 13 Este 0 -- -- 75
2020-03-18 23:00:00 8.9 4 Sudeste 9 Sudeste 0 -- -- 77
2020-03-18 22:00:00 9.2 0 Calma 5 Este 0 -- -- 77
2020-03-18 21:00:00 10.6 0 Calma 10 Sudeste 0 -- -- 73
2020-03-18 20:00:00 11.6 8 Sudeste 10 Sudeste 0 -- -- 71
2020-03-18 19:00:00 13.5 6 Sudeste 10 Sudeste 0 -- -- 63
2020-03-18 18:00:00 15.2 5 Este 13 Este 0 -- -- 57
2020-03-18 17:00:00 15.8 8 Este 19 Sudeste 0 -- -- 56
2020-03-18 16:00:00 16.3 12 Sudeste 21 Sur 0 -- -- 51
2020-03-18 15:00:00 16.2 10 Sur 23 Sur 0 -- -- 49
2020-03-18 14:00:00 16.1 16 Sur 23 Sudeste 0 -- -- 51
2020-03-18 13:00:00 15.5 13 Sudeste 22 Sudeste 0 -- -- 53
2020-03-18 12:00:00 14.2 4 Este 12 Este 0 -- -- 63
2020-03-18 11:00:00 11.6 3 Este 8 Este 0 -- -- 69
2020-03-18 10:00:00 10.1 8 Noroeste 14 Norte 0 -- -- 76
2020-03-18 09:00:00 9.4 9 Sur 14 Sudeste 0 -- -- 74
2020-03-18 08:00:00 6.3 5 Nordeste 15 Sur 0 -- -- 88
2020-03-18 07:00:00 5 6 Sudeste 8 Sudeste 0 -- -- 94
2020-03-18 06:00:00 5.3 3 Este 5 Oeste 0 -- -- 91
2020-03-18 05:00:00 6.5 5 Este 17 Nordeste 0 -- -- 88
2020-03-18 04:00:00 7.8 8 Nordeste 16 Este 0 -- -- 82
2020-03-18 03:00:00 8.4 11 Este 18 Nordeste 0 -- -- 80
2020-03-18 02:00:00 7.2 14 Nordeste 18 Nordeste 0 -- -- 87
2020-03-18 01:00:00 9.2 8 Nordeste 22 Nordeste 0 -- -- 78
2020-03-18 00:00:00 9 2 Sur 23 Sudeste 0 -- -- 79
2020-03-17 23:00:00 9.3 15 Sudeste 26 Sudeste 0 -- -- 79
2020-03-17 22:00:00 9.9 10 Este 21 Este 0 -- -- 79
2020-03-17 21:00:00 10.1 10 Este 24 Nordeste 0 -- -- 79
2020-03-17 20:00:00 10.2 8 Norte 27 Este 0 -- -- 76
2020-03-17 19:00:00 10.5 8 Este 44 Sudeste 0 -- -- 72
2020-03-17 18:00:00 11.3 24 Sudeste 55 Sudeste 0 -- -- 70
2020-03-17 17:00:00 11.7 24 Sudeste 45 Sudeste 0 -- -- 72
2020-03-17 16:00:00 11.3 23 Sudeste 41 Este 0 -- -- 72
2020-03-17 15:00:00 11.3 18 Sudeste 36 Este 0 -- -- 69
2020-03-17 14:00:00 10.8 12 Este 35 Este 0 -- -- 74
2020-03-17 13:00:00 9.9 14 Este 29 Este 0 -- -- 76
2020-03-17 12:00:00 9.1 11 Sudeste 35 Este 0 -- -- 79
2020-03-17 11:00:00 9 15 Este 36 Este 0 -- -- 77
2020-03-17 10:00:00 7.9 19 Este 38 Este 0 -- -- 82
2020-03-17 09:00:00 7 21 Este 39 Este 0.2 -- -- 86
2020-03-17 08:00:00 5.8 13 Nordeste 21 Este 0 -- -- 89
2020-03-17 07:00:00 6.1 11 Este 22 Nordeste 0 -- -- 88
2020-03-17 06:00:00 4 9 Nordeste 18 Este 0.8 -- -- 98
2020-03-17 05:00:00 3.1 7 Norte 12 Noroeste 0 -- -- 95
2020-03-17 04:00:00 3.6 2 Este 17 Sudeste 0 -- -- 90
2020-03-17 03:00:00 3.4 6 Sudeste 23 Este 0.2 -- -- 89
2020-03-17 02:00:00 3.1 8 Sudeste 14 Sur 0.6 -- -- 88
2020-03-17 01:00:00 3.1 0 Calma 16 Sur 0.6 -- -- 92
2020-03-17 00:00:00 4.2 4 Sudeste 29 Este 2.4 -- -- 93
2020-03-16 23:00:00 4.3 17 Este 41 Nordeste 0.2 -- -- 92
2020-03-16 22:00:00 4 26 Nordeste 49 Nordeste 0.2 -- -- 91
2020-03-16 21:00:00 3 20 Nordeste 31 Este 0.4 -- -- 95
2020-03-16 20:00:00 2.2 19 Nordeste 31 Nordeste 0.2 -- -- 96
2020-03-16 19:00:00 1.9 14 Nordeste 27 Nordeste 0.2 -- -- 96
2020-03-16 18:00:00 2.3 16 Nordeste 36 Nordeste 0.8 -- -- 95
2020-03-16 17:00:00 2.8 19 Nordeste 34 Este 0.4 -- -- 93
2020-03-16 16:00:00 2.3 24 Nordeste 38 Este 0.2 -- -- 92
2020-03-16 15:00:00 2.6 22 Nordeste 45 Nordeste 0 -- -- 94
2020-03-16 14:00:00 2.4 24 Nordeste 44 Nordeste 0.2 -- -- 95
2020-03-16 13:00:00 2 25 Nordeste 49 Nordeste 0.2 -- -- 95
2020-03-16 12:00:00 1.8 17 Nordeste 41 Nordeste 2.2 -- -- 95
2020-03-16 11:00:00 2.1 22 Nordeste 37 Nordeste 0.4 -- -- 93
2020-03-16 10:00:00 0.5 6 Nordeste 11 Nordeste 0 -- -- 97
2020-03-16 09:00:00 0.3 0 Calma 5 Nordeste 0 -- -- 97
2020-03-16 08:00:00 0.3 0 Calma 8 Noroeste 0 -- -- 98
2020-03-16 07:00:00 0.2 4 Noroeste 15 Oeste 0.2 -- -- 98
2020-03-16 06:00:00 0.4 8 Oeste 16 Oeste 0 -- -- 97
2020-03-16 05:00:00 1 9 Oeste 14 Oeste 0 -- -- 96
2020-03-16 04:00:00 1.2 9 Oeste 23 Sudoeste 0 -- -- 96
2020-03-16 03:00:00 1.3 7 Sudoeste 26 Oeste -- -- -- 96
2020-03-16 02:00:00 1.9 17 Oeste 36 Oeste 0.2 -- -- 95
2020-03-16 01:00:00 4.1 18 Sudoeste 29 Sudoeste 0 -- -- 93
2020-03-16 00:00:00 6.5 8 Sudoeste 22 Oeste 0 -- -- 84
2020-03-15 23:00:00 6.7 10 Oeste 25 Sudoeste 0.2 -- -- 88
2020-03-15 22:00:00 8.1 14 Sudoeste 23 Sur 0 -- -- 88
2020-03-15 21:00:00 7.2 9 Sur 29 Oeste 1 -- -- 88
2020-03-15 20:00:00 7.9 12 Sudoeste 40 Sur 3.6 -- -- 83
2020-03-15 19:00:00 9.3 13 Sur 41 Sudoeste 2.4 -- -- 85
2020-03-15 18:00:00 11.8 28 Oeste 70 Oeste 0 -- -- 65
2020-03-15 17:00:00 15 3 Sur 39 Oeste 0 -- -- 53
2020-03-15 16:00:00 16.4 19 Sudoeste 35 Sudoeste 0 -- -- 49
2020-03-15 15:00:00 17.6 18 Sudoeste 34 Sur 0 -- -- 40
2020-03-15 14:00:00 16.8 27 Sur 36 Sur 0 -- -- 50
2020-03-15 13:00:00 15.7 14 Oeste 27 Oeste 0 -- -- 49
2020-03-15 12:00:00 15.3 16 Sudoeste 34 Sudoeste 0 -- -- 48
2020-03-15 11:00:00 15.2 18 Sudoeste 34 Sudoeste 0 -- -- 42
2020-03-15 10:00:00 15.3 14 Sur 26 Sur 0 -- -- 49
2020-03-15 09:00:00 12.1 8 Sudeste 21 Sur 0 -- -- 61
2020-03-15 08:00:00 9.9 16 Sur 19 Sur 0 -- -- 58
2020-03-15 07:00:00 7.7 9 Sudeste 13 Sudeste 0 -- -- 59
2020-03-15 06:00:00 7.4 6 Sudeste 13 Sur 0 -- -- 63
2020-03-15 05:00:00 7.5 5 Sur 14 Sur 0 -- -- 62
2020-03-15 04:00:00 7 10 Sudeste 13 Sur 0 -- -- 69
2020-03-15 03:00:00 7.4 3 Este 10 Este 0 -- -- 71
2020-03-15 02:00:00 7 3 Sudeste 12 Este 0 -- -- 70
2020-03-15 01:00:00 8 8 Este 12 Sudeste 0 -- -- 60
2020-03-15 00:00:00 6.8 8 Este 10 Este 0 -- -- 60
2020-03-14 23:00:00 6.9 4 Este 12 Este 0 -- -- 63
2020-03-14 22:00:00 8.5 7 Este 10 Este 0 -- -- 57
2020-03-14 21:00:00 8.6 7 Sudeste 9 Sudeste 0 -- -- 56
2020-03-14 20:00:00 11.6 3 Nordeste 8 Norte 0 -- -- 44
2020-03-14 19:00:00 15.3 6 Norte 10 Noroeste 0 -- -- 36
2020-03-14 18:00:00 16.2 6 Norte 20 Norte 0 -- -- 37
2020-03-14 17:00:00 16.3 8 Norte 19 Norte 0 -- -- 37
2020-03-14 16:00:00 16.4 8 Norte 16 Noroeste 0 -- -- 32
2020-03-14 15:00:00 15.4 6 Norte 15 Noroeste 0 -- -- 44
2020-03-14 14:00:00 14.8 6 Noroeste 18 Noroeste 0 -- -- 54
2020-03-14 13:00:00 13.5 9 Noroeste 17 Noroeste 0 -- -- 62
2020-03-14 12:00:00 12.3 3 Norte 8 Oeste 0 -- -- 66
2020-03-14 11:00:00 10.4 4 Noroeste 7 Noroeste 0 -- -- 74
2020-03-14 10:00:00 7.8 4 Oeste 6 Noroeste 0 -- -- 83
2020-03-14 09:00:00 5.5 0 Calma 8 Sudeste 0 -- -- 98
2020-03-14 08:00:00 1.1 5 Este 8 Norte 0 -- -- 98
2020-03-14 07:00:00 1.9 3 Este 11 Sudeste 0 -- -- 96
2020-03-14 06:00:00 2.3 3 Nordeste 14 Norte 0 -- -- 96
2020-03-14 05:00:00 3.6 0 Calma 13 Norte 0 -- -- 94
2020-03-14 04:00:00 4.8 3 Sudeste 13 Sur 0 -- -- 96
2020-03-14 03:00:00 4 0 Calma 12 Norte 0 -- -- 93
2020-03-14 02:00:00 6.1 3 Sudeste 13 Sudeste 0 -- -- 91
2020-03-14 01:00:00 6 0 Calma 12 Noroeste 0 -- -- 90
2020-03-14 00:00:00 6.7 0 Calma 9 Sudeste 0 -- -- 90
2020-03-13 23:00:00 7 0 Calma 8 Sudeste 0 -- -- 85
2020-03-13 22:00:00 7.9 6 Sudeste 9 Sur 0 -- -- 84
2020-03-13 21:00:00 9.1 4 Noroeste 11 Noroeste 0 -- -- 80
2020-03-13 20:00:00 10.8 3 Sudoeste 19 Noroeste 0 -- -- 75
2020-03-13 19:00:00 13.1 13 Noroeste 24 Noroeste 0 -- -- 69
2020-03-13 18:00:00 15 4 Oeste 10 Oeste 0 -- -- 67
2020-03-13 17:00:00 14.8 9 Oeste 13 Oeste 0 -- -- 68
2020-03-13 16:00:00 14.8 7 Noroeste 15 Noroeste 0 -- -- 67
2020-03-13 15:00:00 15.1 6 Noroeste 15 Noroeste 0 -- -- 68
2020-03-13 14:00:00 14.6 4 Noroeste 12 Nordeste 0 -- -- 70
2020-03-13 13:00:00 12.6 8 Noroeste 17 Norte 0 -- -- 76
2020-03-13 12:00:00 9.4 4 Noroeste 12 Noroeste 0 -- -- 88
2020-03-13 11:00:00 8 4 Oeste 12 Noroeste 0 -- -- 93
2020-03-13 10:00:00 7.7 3 Sudoeste 6 Norte 0 -- -- 94
2020-03-13 09:00:00 7.2 2 Noroeste 5 Noroeste 0 -- -- 94
2020-03-13 08:00:00 6.4 0 Calma 6 Noroeste 0 -- -- 92
2020-03-13 07:00:00 6.8 0 Calma 9 Norte 0 -- -- 88
2020-03-13 06:00:00 8.4 4 Norte 10 Sudeste 0 -- -- 86
2020-03-13 05:00:00 7.5 6 Este 9 Este 0 -- -- 88
2020-03-13 04:00:00 8.4 2 Sudoeste 9 Este 0 -- -- 86
2020-03-13 03:00:00 8.6 4 Este 6 Nordeste 0 -- -- 89
2020-03-13 02:00:00 8.9 5 Este 8 Este 0 -- -- 86
2020-03-13 01:00:00 9.8 0 Calma 9 Norte 0 -- -- 78
2020-03-13 00:00:00 11.8 5 Nordeste 11 Este 0 -- -- 69
2020-03-12 23:00:00 11.8 6 Sudeste 13 Sudeste 0 -- -- 72
2020-03-12 22:00:00 13 4 Sudoeste 14 Noroeste 0 -- -- 64
2020-03-12 21:00:00 13.9 8 Este 10 Este 0 -- -- 61
2020-03-12 20:00:00 15 6 Sudeste 11 Noroeste 0 -- -- 57
2020-03-12 19:00:00 17.7 8 Norte 18 Noroeste 0 -- -- 48
2020-03-12 18:00:00 20.2 11 Sudoeste 32 Oeste 0 -- -- 39
2020-03-12 17:00:00 22 18 Oeste 31 Oeste 0 -- -- 35
2020-03-12 16:00:00 22.7 16 Oeste 26 Sudoeste 0 -- -- 34
2020-03-12 15:00:00 22.3 18 Oeste 34 Oeste 0 -- -- 34
2020-03-12 14:00:00 21.7 19 Oeste 36 Sudoeste 0 -- -- 35
2020-03-12 13:00:00 21.8 21 Oeste 33 Oeste 0 -- -- 32
2020-03-12 12:00:00 21.3 14 Sudoeste 25 Sur 0 -- -- 35
2020-03-12 11:00:00 20.1 16 Sur 24 Sur 0 -- -- 37
2020-03-12 10:00:00 20.6 11 Sur 27 Sur 0 -- -- 39
2020-03-12 09:00:00 17.3 10 Sudeste 18 Sudeste 0 -- -- 45
2020-03-12 08:00:00 14.5 10 Sudeste 20 Sur 0 -- -- 47
2020-03-12 07:00:00 13.7 12 Sudeste 21 Sudeste 0 -- -- 45
2020-03-12 06:00:00 13.7 10 Sudeste 14 Sudeste 0 -- -- 42
2020-03-12 05:00:00 13.1 6 Sudeste 11 Sudeste 0 -- -- 44
2020-03-12 04:00:00 12.3 10 Sudeste 14 Sudeste 0 -- -- 51
2020-03-12 03:00:00 12.2 12 Sudeste 14 Sudeste 0 -- -- 58
2020-03-12 02:00:00 12.9 7 Sudeste 10 Sudeste 0 -- -- 61
2020-03-12 01:00:00 12.3 7 Sudeste 11 Sudeste 0 -- -- 64
2020-03-12 00:00:00 12.5 7 Sudeste 13 Sudeste 0 -- -- 63
2020-03-11 23:00:00 12.9 12 Sudeste 14 Sudeste 0 -- -- 61
2020-03-11 22:00:00 13.5 12 Sudeste 17 Sudeste 0 -- -- 59
2020-03-11 21:00:00 13.8 9 Sudeste 12 Sudeste 0 -- -- 59
2020-03-11 20:00:00 16.7 5 Nordeste 8 Norte 0 -- -- 50
2020-03-11 19:00:00 18.7 6 Norte 13 Noroeste 0 -- -- 47
2020-03-11 18:00:00 21 8 Noroeste 19 Oeste 0 -- -- 38
2020-03-11 17:00:00 22.3 13 Noroeste 19 Noroeste 0 -- -- 34
2020-03-11 16:00:00 22.7 12 Oeste 26 Noroeste 0 -- -- 36
2020-03-11 15:00:00 22.6 6 Noroeste 23 Oeste 0 -- -- 36
2020-03-11 14:00:00 21.6 14 Oeste 24 Oeste 0 -- -- 37
2020-03-11 13:00:00 20.4 11 Oeste 26 Oeste 0 -- -- 38
2020-03-11 12:00:00 19.4 8 Oeste 19 Oeste 0 -- -- 42
2020-03-11 11:00:00 17.1 3 Noroeste 8 Noroeste 0 -- -- 57
2020-03-11 10:00:00 15.6 2 Norte 4 Noroeste 0 -- -- 57
2020-03-11 09:00:00 12.9 2 Sudeste 5 Sudeste 0 -- -- 67
2020-03-11 08:00:00 8.6 4 Sudeste 6 Sudeste 0 -- -- 77
2020-03-11 07:00:00 8.7 4 Sudeste 6 Sudeste 0 -- -- 77
2020-03-11 06:00:00 9.3 2 Sur 6 Sudeste 0 -- -- 76
2020-03-11 05:00:00 9.1 4 Sudeste 7 Sur 0 -- -- 79
2020-03-11 04:00:00 9.2 3 Sudeste 6 Sur 0 -- -- 73
2020-03-11 03:00:00 10.9 3 Oeste 11 Sudoeste 0 -- -- 68
2020-03-11 02:00:00 11.5 9 Sudoeste 16 Sudoeste 0 -- -- 67
2020-03-11 01:00:00 9.2 4 Sur 8 Sudoeste 0 -- -- 76
2020-03-11 00:00:00 11.4 5 Sur 13 Sudoeste 0 -- -- 67
2020-03-10 23:00:00 12.4 11 Sur 16 Sudoeste 0 -- -- 63
2020-03-10 22:00:00 11.9 7 Sur 11 Sudoeste 0 -- -- 61
2020-03-10 21:00:00 12.2 5 Sur 9 Sudeste 0 -- -- 61
2020-03-10 20:00:00 14.9 4 Sudoeste 15 Oeste 0 -- -- 53
2020-03-10 19:00:00 17.9 10 Oeste 24 Oeste 0 -- -- 43
2020-03-10 18:00:00 19.1 15 Oeste 29 Oeste 0 -- -- 39
2020-03-10 17:00:00 19.9 14 Oeste 26 Oeste 0 -- -- 39
2020-03-10 16:00:00 19.3 14 Oeste 22 Oeste 0 -- -- 40
2020-03-10 15:00:00 18.1 13 Oeste 23 Oeste 0 -- -- 42
2020-03-10 14:00:00 17 12 Oeste 19 Oeste 0 -- -- 46
2020-03-10 13:00:00 16.6 9 Oeste 18 Oeste 0 -- -- 49
2020-03-10 12:00:00 14.8 0 Calma 8 Oeste 0 -- -- 51
2020-03-10 11:00:00 12.3 2 Sudoeste 5 Sudeste 0 -- -- 55
2020-03-10 10:00:00 9.2 4 Este 8 Nordeste 0 -- -- 66
2020-03-10 09:00:00 6.8 0 Calma 6 Sudeste 0 -- -- 71
2020-03-10 08:00:00 5.2 3 Sur 7 Sur 0 -- -- 73
2020-03-10 07:00:00 5.1 6 Sur 9 Sur 0 -- -- 72
2020-03-10 06:00:00 5.9 5 Sur 16 Oeste 0 -- -- 68
2020-03-10 05:00:00 6.6 4 Oeste 9 Sudoeste 0 -- -- 64
2020-03-10 04:00:00 6.5 5 Oeste 12 Sudoeste 0 -- -- 61
2020-03-10 03:00:00 6.1 5 Oeste 13 Sudoeste 0 -- -- 62
2020-03-10 02:00:00 4.9 3 Sudoeste 10 Sudoeste 0 -- -- 65
2020-03-10 01:00:00 4.5 0 Calma 4 Sudoeste 0 -- -- 66
2020-03-10 00:00:00 4.3 0 Calma 4 Sudoeste 0 -- -- 67
2020-03-09 23:00:00 4 0 Calma 4 Sudeste 0 -- -- 69
2020-03-09 22:00:00 4.4 3 Sur 7 Sur 0 -- -- 69
2020-03-09 21:00:00 5.6 5 Sudeste 10 Noroeste 0 -- -- 66
2020-03-09 20:00:00 7.5 8 Noroeste 12 Noroeste 0 -- -- 59
2020-03-09 19:00:00 9.4 9 Noroeste 26 Noroeste 0 -- -- 55
2020-03-09 18:00:00 11 16 Noroeste 31 Noroeste 0 -- -- 50
2020-03-09 17:00:00 11.6 18 Noroeste 33 Noroeste 0 -- -- 52
2020-03-09 16:00:00 10.8 18 Oeste 33 Oeste 0 -- -- 53
2020-03-09 15:00:00 9.9 19 Oeste 36 Oeste 0 -- -- 58
2020-03-09 14:00:00 8.7 17 Oeste 30 Noroeste 0 -- -- 67
2020-03-09 13:00:00 6.7 16 Oeste 31 Oeste 0 -- -- 72
2020-03-09 12:00:00 6.4 15 Oeste 25 Noroeste 0 -- -- 74
2020-03-09 11:00:00 5.3 14 Noroeste 22 Oeste 0 -- -- 79
2020-03-09 10:00:00 3.7 8 Oeste 19 Oeste 0 -- -- 90
2020-03-09 09:00:00 2.9 9 Oeste 19 Oeste 0 -- -- 95
2020-03-09 08:00:00 2.9 9 Oeste 18 Oeste 0 -- -- 94
2020-03-09 07:00:00 2.9 4 Oeste 23 Oeste 0 -- -- 93
2020-03-09 06:00:00 3.7 14 Oeste 28 Oeste 0 -- -- 92
2020-03-09 05:00:00 4.2 18 Oeste 31 Oeste 0 -- -- 92
2020-03-09 04:00:00 4.8 17 Oeste 32 Oeste 0 -- -- 92
2020-03-09 03:00:00 5.4 17 Oeste 37 Oeste 0 -- -- 91
2020-03-09 02:00:00 6 22 Oeste 37 Oeste 0 -- -- 90
2020-03-09 01:00:00 6.4 23 Oeste 41 Oeste 0 -- -- 93
2020-03-09 00:00:00 6.9 23 Oeste 40 Sudoeste 0 -- -- 90
2020-03-08 23:00:00 7.3 19 Oeste 34 Sudoeste 0 -- -- 88
2020-03-08 22:00:00 7.6 18 Oeste 35 Oeste 0 -- -- 86
2020-03-08 21:00:00 8.2 13 Oeste 27 Oeste 0 -- -- 80
2020-03-08 20:00:00 8.7 17 Oeste 28 Oeste 0 -- -- 77
2020-03-08 19:00:00 9.4 14 Oeste 29 Sudoeste 0 -- -- 75
2020-03-08 18:00:00 10.2 16 Oeste 31 Oeste 0 -- -- 67
2020-03-08 17:00:00 10.7 16 Oeste 26 Oeste 0 -- -- 57
2020-03-08 16:00:00 10.7 18 Noroeste 32 Oeste 0 -- -- 56
2020-03-08 15:00:00 11.7 22 Oeste 35 Noroeste 0 -- -- 50
2020-03-08 14:00:00 12 21 Oeste 34 Oeste 0 -- -- 50
2020-03-08 13:00:00 11.1 17 Oeste 27 Oeste 0 -- -- 53
2020-03-08 12:00:00 9.6 16 Oeste 30 Oeste 0 -- -- 54
2020-03-08 11:00:00 7.9 12 Oeste 24 Oeste 0 -- -- 65
2020-03-08 10:00:00 6.9 10 Oeste 15 Oeste 0 -- -- 68
2020-03-08 09:00:00 4.9 4 Sur 9 Sur 0 -- -- 68
2020-03-08 08:00:00 1.3 4 Sur 10 Sur 0 -- -- 69
2020-03-08 07:00:00 0.9 10 Sur 12 Sur 0 -- -- 75
2020-03-08 06:00:00 0.5 3 Sudeste 7 Sur 0 -- -- 77
2020-03-08 05:00:00 1.3 4 Sudeste 12 Sur 0 -- -- 73
2020-03-08 04:00:00 2.2 6 Sur 11 Oeste 0 -- -- 66
2020-03-08 03:00:00 1.5 4 Sudeste 10 Sudeste 0 -- -- 71
2020-03-08 02:00:00 1 9 Sudeste 12 Sudeste 0 -- -- 84
2020-03-08 01:00:00 2.3 4 Este 9 Sudeste 0 -- -- 81
2020-03-08 00:00:00 2.7 4 Sudeste 9 Sudeste 0 -- -- 83
2020-03-07 23:00:00 3.2 3 Sur 7 Sudeste 0 -- -- 81
2020-03-07 22:00:00 4 4 Sudeste 8 Sudeste 0 -- -- 79
2020-03-07 21:00:00 4.7 4 Sudeste 12 Sur 0 -- -- 78
2020-03-07 20:00:00 6.3 3 Sudeste 9 Sudoeste 0 -- -- 73
2020-03-07 19:00:00 8.9 6 Oeste 12 Noroeste 0 -- -- 64
2020-03-07 18:00:00 10.2 6 Oeste 15 Oeste 0 -- -- 61
2020-03-07 17:00:00 9.7 5 Norte 18 Norte 0 -- -- 62
2020-03-07 16:00:00 9.1 7 Noroeste 19 Oeste 0 -- -- 62
2020-03-07 15:00:00 8.8 8 Oeste 21 Oeste 0 -- -- 65
2020-03-07 14:00:00 7.2 11 Oeste 19 Oeste 0 -- -- 71
2020-03-07 13:00:00 5.8 12 Oeste 23 Oeste 0 -- -- 76
2020-03-07 12:00:00 4.8 12 Oeste 19 Noroeste 0 -- -- 79
2020-03-07 11:00:00 3.9 9 Oeste 18 Oeste 0 -- -- 81
2020-03-07 10:00:00 2.7 9 Oeste 13 Oeste 0 -- -- 84
2020-03-07 09:00:00 1.2 7 Oeste 11 Oeste 0 -- -- 87
2020-03-07 08:00:00 0.3 3 Oeste 10 Oeste 0 -- -- 84
2020-03-07 07:00:00 0.4 0 Calma 10 Oeste 0 -- -- 79
2020-03-07 06:00:00 0.1 4 Oeste 12 Oeste 0 -- -- 78
2020-03-07 05:00:00 0.1 4 Oeste 10 Oeste 0 -- -- 80
2020-03-07 04:00:00 -0.5 2 Sudoeste 5 Sudoeste 0 -- -- 84
2020-03-07 03:00:00 -0.9 3 Sudoeste 9 Oeste 0 -- -- 82
2020-03-07 02:00:00 -0.2 6 Oeste 17 Oeste 0 -- -- 81
2020-03-07 01:00:00 0.1 4 Noroeste 12 Noroeste 0 -- -- 75
2020-03-07 00:00:00 0.6 6 Noroeste 15 Noroeste 0 -- -- 74
2020-03-06 23:00:00 1.2 11 Noroeste 20 Oeste 0 -- -- 72
2020-03-06 22:00:00 2 14 Oeste 19 Noroeste 0 -- -- 69
2020-03-06 21:00:00 3.4 15 Noroeste 38 Oeste 0 -- -- 63
2020-03-06 20:00:00 4.4 24 Noroeste 40 Noroeste 0 -- -- 64
2020-03-06 19:00:00 4.9 20 Noroeste 38 Noroeste 0 -- -- 57
2020-03-06 18:00:00 5.6 26 Noroeste 45 Noroeste 0 -- -- 54
2020-03-06 17:00:00 5.5 23 Noroeste 46 Noroeste 0 -- -- 56
2020-03-06 16:00:00 6 31 Noroeste 49 Noroeste 0 -- -- 57
2020-03-06 15:00:00 5.3 35 Noroeste 53 Noroeste 0 -- -- 54
2020-03-06 14:00:00 4.8 36 Noroeste 56 Noroeste 0 -- -- 60
2020-03-06 13:00:00 4.3 36 Noroeste 57 Noroeste 0 -- -- 68
2020-03-06 12:00:00 3.9 34 Noroeste 59 Oeste 0 -- -- 74
2020-03-06 11:00:00 2.6 32 Oeste 57 Oeste 0 -- -- 83
2020-03-06 10:00:00 2.1 30 Oeste 64 Noroeste 0 -- -- 87
2020-03-06 09:00:00 1.5 37 Oeste 59 Oeste 0 -- -- 92
2020-03-06 08:00:00 1.7 34 Oeste 61 Oeste 0 -- -- 92
2020-03-06 07:00:00 2.3 38 Oeste 66 Oeste 0 -- -- 90
2020-03-06 06:00:00 2.8 32 Oeste 53 Oeste 0.2 -- -- 94
2020-03-06 05:00:00 2.5 28 Oeste 53 Oeste 0.4 -- -- 96
2020-03-06 04:00:00 2.7 26 Oeste 41 Oeste 0 -- -- 92
2020-03-06 03:00:00 2.6 23 Oeste 39 Oeste 0 -- -- 92
2020-03-06 02:00:00 2.8 19 Oeste 37 Oeste 0 -- -- 93
2020-03-06 01:00:00 2.9 25 Oeste 38 Oeste 0 -- -- 87
2020-03-06 00:00:00 3.5 27 Oeste 42 Oeste 0 -- -- 89
2020-03-05 23:00:00 4.5 23 Oeste 40 Oeste 0 -- -- 91
2020-03-05 22:00:00 4.9 24 Oeste 36 Oeste 0 -- -- 90
2020-03-05 21:00:00 4.5 17 Oeste 58 Noroeste 1.6 -- -- 90
2020-03-05 20:00:00 6.8 28 Oeste 46 Oeste 0 -- -- 83
2020-03-05 19:00:00 7.5 23 Oeste 58 Oeste 0 -- -- 80
2020-03-05 18:00:00 8.4 33 Oeste 51 Oeste 0 -- -- 70
2020-03-05 17:00:00 8.4 35 Oeste 52 Oeste 0 -- -- 70
2020-03-05 16:00:00 7.9 25 Oeste 46 Oeste 0 -- -- 71
2020-03-05 15:00:00 7.7 24 Oeste 51 Oeste 0 -- -- 70
2020-03-05 14:00:00 7.9 36 Oeste 71 Oeste 0 -- -- 68
2020-03-05 13:00:00 7.3 38 Oeste 59 Oeste 0.2 -- -- 77
2020-03-05 12:00:00 6.3 33 Oeste 64 Oeste 0 -- -- 87
2020-03-05 11:00:00 5.9 41 Oeste 82 Oeste 1.4 -- -- 94
2020-03-05 10:00:00 9.3 36 Oeste 53 Oeste 0 -- -- 81
2020-03-05 09:00:00 9 15 Sudoeste 25 Sudoeste 0 -- -- 77
2020-03-05 08:00:00 7.9 5 Sudoeste 16 Sudoeste 0 -- -- 83
2020-03-05 07:00:00 8.3 5 Oeste 26 Sudoeste 0 -- -- 81
2020-03-05 06:00:00 9.3 14 Sudoeste 35 Oeste 0 -- -- 75
2020-03-05 05:00:00 10.1 15 Sudoeste 33 Sudoeste 0 -- -- 74
2020-03-05 04:00:00 10.1 19 Sudoeste 37 Sudoeste 0 -- -- 76
2020-03-05 03:00:00 9.6 21 Sudoeste 37 Sudoeste 0 -- -- 81
2020-03-05 02:00:00 9.2 18 Sudoeste 33 Sudoeste 0 -- -- 84
2020-03-05 01:00:00 9.3 17 Sudoeste 35 Sudoeste 0 -- -- 83
2020-03-05 00:00:00 9.4 17 Oeste 28 Sudoeste 0 -- -- 81
2020-03-04 23:00:00 9.3 17 Sudoeste 29 Sudoeste 0 -- -- 81
2020-03-04 22:00:00 9.3 17 Sudoeste 34 Sudoeste 0 -- -- 77
2020-03-04 21:00:00 9.4 10 Oeste 22 Sudoeste 0 -- -- 80
2020-03-04 20:00:00 9.4 13 Sudoeste 31 Oeste 0 -- -- 80
2020-03-04 19:00:00 9.7 16 Oeste 36 Oeste 0 -- -- 78
2020-03-04 18:00:00 9.9 18 Oeste 30 Oeste 0 -- -- 79
2020-03-04 17:00:00 10 18 Oeste 36 Oeste 0 -- -- 81
2020-03-04 16:00:00 9.9 21 Oeste 36 Oeste 0 -- -- 80
2020-03-04 15:00:00 9.4 19 Oeste 37 Oeste 0 -- -- 83
2020-03-04 14:00:00 9.4 20 Oeste 31 Oeste 0 -- -- 83
2020-03-04 13:00:00 9.2 19 Oeste 32 Oeste 0 -- -- 82
2020-03-04 12:00:00 8.3 22 Oeste 38 Oeste 0 -- -- 93
2020-03-04 11:00:00 8.1 23 Oeste 36 Oeste 0.2 -- -- 96
2020-03-04 10:00:00 8.1 20 Oeste 33 Oeste 0 -- -- 94
2020-03-04 09:00:00 7.8 14 Oeste 35 Oeste 0 -- -- 95
2020-03-04 08:00:00 8.1 19 Oeste 35 Oeste 0 -- -- 96
2020-03-04 07:00:00 8.4 21 Oeste 37 Oeste 0 -- -- 97
2020-03-04 06:00:00 8.6 22 Oeste 45 Oeste 0.2 -- -- 97
2020-03-04 05:00:00 8.9 20 Oeste 35 Sudoeste 0 -- -- 98
2020-03-04 04:00:00 9.1 22 Oeste 37 Oeste 0 -- -- 98
2020-03-04 03:00:00 9.3 24 Oeste 41 Oeste 0.2 -- -- 98
2020-03-04 02:00:00 9.3 20 Oeste 39 Oeste 0.2 -- -- 97
2020-03-04 01:00:00 9.4 23 Oeste 40 Oeste 0 -- -- 96
2020-03-04 00:00:00 9.4 24 Oeste 36 Oeste 0 -- -- 96
2020-03-03 23:00:00 9.7 19 Oeste 39 Noroeste 0 -- -- 93
2020-03-03 22:00:00 10 24 Oeste 45 Oeste 0 -- -- 90
2020-03-03 21:00:00 10.4 27 Oeste 47 Oeste 0 -- -- 89
2020-03-03 20:00:00 10.7 27 Oeste 49 Oeste 0 -- -- 87
2020-03-03 19:00:00 11.1 27 Oeste 47 Oeste 0 -- -- 83
2020-03-03 18:00:00 11.7 34 Oeste 60 Oeste 0 -- -- 77
2020-03-03 17:00:00 11.5 38 Oeste 63 Oeste 0 -- -- 79
2020-03-03 16:00:00 10.8 31 Oeste 57 Oeste 0 -- -- 89
2020-03-03 15:00:00 9.4 30 Oeste 51 Oeste 0 -- -- 97
2020-03-03 14:00:00 8 32 Oeste 57 Oeste 0.2 -- -- 98
2020-03-03 13:00:00 7.3 34 Oeste 56 Oeste 0.2 -- -- 97
2020-03-03 12:00:00 6.6 32 Oeste 59 Oeste 0.2 -- -- 97
2020-03-03 11:00:00 5.4 26 Oeste 54 Oeste 0.4 -- -- 97
2020-03-03 10:00:00 4.5 33 Oeste 52 Sudoeste 0 -- -- 95
2020-03-03 09:00:00 3.9 30 Oeste 48 Sudoeste 0 -- -- 95
2020-03-03 08:00:00 3.8 26 Sudoeste 46 Oeste 0.8 -- -- 92
2020-03-03 07:00:00 3 22 Sudoeste 39 Sudoeste 0.8 -- -- 95
2020-03-03 06:00:00 2.8 22 Sudoeste 48 Sudoeste 0.2 -- -- 90
2020-03-03 05:00:00 3 25 Sudoeste 41 Sudoeste 0 -- -- 84
2020-03-03 04:00:00 2.7 20 Sudoeste 37 Sudoeste 0 -- -- 82
2020-03-03 03:00:00 2.3 20 Sudoeste 38 Sudoeste 0 -- -- 83
2020-03-03 02:00:00 2.1 21 Sudoeste 37 Oeste 0 -- -- 85
2020-03-03 01:00:00 1.5 17 Oeste 33 Oeste 0 -- -- 87
2020-03-03 00:00:00 1.8 18 Oeste 38 Oeste 0 -- -- 85
2020-03-02 23:00:00 2.8 21 Oeste 40 Oeste 0 -- -- 81
2020-03-02 22:00:00 2.8 17 Oeste 29 Oeste 0 -- -- 75
2020-03-02 21:00:00 2.8 15 Oeste 35 Oeste 0 -- -- 72
2020-03-02 20:00:00 3.4 14 Noroeste 36 Oeste 0 -- -- 67
2020-03-02 19:00:00 3.6 18 Noroeste 41 Noroeste 0 -- -- 65
2020-03-02 18:00:00 4.2 29 Noroeste 64 Noroeste 0 -- -- 59
2020-03-02 17:00:00 6.1 32 Noroeste 60 Noroeste 0 -- -- 52
2020-03-02 16:00:00 5.6 40 Noroeste 63 Noroeste 0.2 -- -- 52
2020-03-02 15:00:00 3.6 23 Noroeste 74 Noroeste 0.8 -- -- 90
2020-03-02 14:00:00 5.2 34 Oeste 67 Oeste 0 -- -- 68
2020-03-02 13:00:00 4.8 39 Oeste 67 Oeste 0 -- -- 78
2020-03-02 12:00:00 4.5 36 Oeste 57 Oeste 0 -- -- 81
2020-03-02 11:00:00 3.9 36 Oeste 64 Oeste 0 -- -- 86
2020-03-02 10:00:00 3.5 37 Oeste 65 Oeste 0 -- -- 91
2020-03-02 09:00:00 3.6 31 Oeste 72 Oeste 0.2 -- -- 95
2020-03-02 08:00:00 2.2 43 Oeste 81 Oeste 1.6 -- -- 93
2020-03-02 07:00:00 5.9 54 Oeste 108 Oeste 0.2 -- -- 86
2020-03-02 06:00:00 7.2 59 Oeste 105 Oeste 5 -- -- 90
2020-03-02 05:00:00 9.7 46 Sudoeste 78 Oeste 0 -- -- 78
2020-03-02 04:00:00 9.2 49 Sudoeste 85 Sudoeste 0 -- -- 77
2020-03-02 03:00:00 9.5 44 Sudoeste 75 Sudoeste 0 -- -- 76
2020-03-02 02:00:00 9.5 31 Sudoeste 53 Sudoeste 0 -- -- 80
2020-03-02 01:00:00 8.7 28 Sudoeste 60 Sudoeste 1 -- -- 86
2020-03-02 00:00:00 8.9 28 Sudoeste 58 Sudoeste 1 -- -- 89